Airfield :
LOGIN :

Register | Disclaimer

   EN    FR    IT 

 










Legend :    VFR   Marginal VFR   IFR   Intensive IFR   Very Intensive IFR
Visi :
Ceiling :
>= 8 km
>= 3000ft
5 to 8 km
1000 to 3000 ft
1500m to 5 km
500 to 1000 ft
800 to 1500m
200 to 500 ft
< 800m
< 200 ft
Symbols :   Thunderstorms  Fog  Heavy snow  Heavy precipitations  Wind > 20 kt
SIGMETs :     Misc.  Thunderstorms  Icing  Turbulence  Mountain Waves  Volcanic Ashes







- Airport Elevation : 870 ft
- IATA code : ETZ
- Download approach charts


LFJL - Metz Nancy Lorraine

CURRENT METAR :
  • 252130Z AUTO 32010KT 9999 FEW036 OVC056 05/01 Q1027 NOSIG

EXPIRED METARs :
  • 252100Z AUTO 31006KT 9999 BKN039 OVC048 05/01 Q1027 NOSIG
  • 252030Z AUTO 32009KT 9999 FEW035 BKN044 BKN056 06/00 Q1027 NOSIG
  • 252000Z AUTO 33012KT 9999 BKN039 OVC050 07/00 Q1026 NOSIG
  • 251930Z AUTO 33013KT 9999 SCT042 BKN052 BKN062 07/M00 Q1026 NOSIG
  • 251900Z AUTO 33014KT 9999 BKN048 BKN056 BKN066 07/M00 Q1026 NOSIG

TAF TAF LFJL
Valid from the 25 at 18:00 until the 26 at 18:00 UTC


251701Z 2518/2618 34011KT 9999 FEW020 BKN040
PROB40
TEMPO 2518/2519 FEW030TCU BKN040
No reported NOTAMs for that airfield.



MET'MAP, your aeronautical weather chart ! - Copyright ORBIFLY December 2007 - Disclaimer

ORBIFLY MET'MAP TEAM :

Programming & Development : Alexandra Zaïnal
Concept & Development : Baudouin d'Aumeries
Co-Development & Prog : Marc-Olivier Méhu
Technical & hardware support : Manuel Goepfert

Contact : metmap@orbifly.com




SOURCES & CREDITS :

   NOAA